Aérodrome :
LOGIN :

S'inscrire | Disclaimer

   EN    FR    IT 

 










Légende :    VFR   VFR Marginal   IFR   IFR Intensif   IFR Très Intensif
Visi : 
Plafond : 
>= 8 km
>= 3000ft
5 à 8 km
1000 à 3000 ft
1500m à 5 km
500 à 1000 ft
800 à 1500m
200 à 500 ft
< 800m
< 200 ft
Symboles :   Orages  Brouillard  Fortes neiges  Fortes précipitations  Vent > 20 kt
SIGMETs :   Divers  Orages  Givrage  Turbulence  Onde Orograph.  Cendres Volcan.







- Altitude de l'aérodrome : 302 ft
- Code IATA : MAH


LEMH - Menorca

DERNIER METAR :
  • 201130Z 22004KT 160V300 9999 SCT018 20/15 Q1014

METARs EXPIRÉS :
  • 201100Z 24004KT 160V320 9999 SCT018 20/15 Q1014
  • 201030Z 22005KT 160V320 9999 SCT022 19/15 Q1014
  • 201000Z 25007KT 210V290 9999 FEW015 19/15 Q1014
  • 200930Z VRB02KT 9999 FEW018 21/12 Q1014
  • 200900Z 03006KT 350V070 9999 FEW015 20/14 Q1014

TAF TAF LEMH
Valide du 20 à 09h jusqu'au 21 à 09h UTC


200800Z 2009/2109 02007KT 9999 FEW020 TX22/2012Z TN13/2106Z
BECMG 2010/2013 20010KT
TEMPO 2009/2109 FEW020TCU SCT030
PROB40
TEMPO 2017/2106 SHRA FEW025TCU BKN030
BECMG 2019/2021 30005KT
PROB40
TEMPO 2022/2106 2000 BR BKN008
Pas de NOTAMs connus pour ce terrain.
1 SIGMET publié pour la FIR Barcelona (LECB) :
 
Orages noyés dans la masse
LECB SIGMET 1 VALID 201030/201300 LEVA
LECB BARCELONA FIR/UIR EMBD TS OBS AT 1034Z WI N4220 E00230 - N4020 E00010 - N4040 W001 - N43 W00040 - N4220 E00230 TOP FL320 STNR NC=



MET'MAP, la Météo Aéronautique d'un coup d'oeil ! - Copyright ORBIFLY Décembre 2007 - Disclaimer

ORBIFLY MET'MAP TEAM :

Programmation & Développement : Alexandra Zaïnal
Conception & Développement : Baudouin d'Aumeries
Co-Programmation & Développement : Marc-Olivier Méhu
Soutien technique & logistique : Manuel Goepfert

Contact : metmap@orbifly.com




SOURCES & CREDITS :

   NOAA